Silver Creek, Washington
Current Conditions -  °F | °C
As of 2:35 PM on Monday 24 Nov 2014 (Local Time) from KCLS Reporting Station
Drizzle Drizzle  
Wind Chill: 50°   Ceiling: 6500
Heat Index: 50°   Visibility: 10mi
Dew Point: 46°   Wind: 6mph
Humidity: 87%   Direction: 170°S
Pressure: 30.23"   Gusts: NA
Location:  46.53°N, 122.59°W
Report Text: KCLS 242235Z AUTO 17005KT 10SM -DZ BKN065 10/08 A3023 RMK AO2
Loading
Personal Weather Stations






























Interactive Weather Map New forecast layout! Learn more

10-Day Weather Forecast

Advertisements
Track Severe Weather on mobile